Terminal Aerodrome Forecast
Issued by NWS Buffalo, NY

Home | Current Version | Previous Version | Text Only | Print | Product List | Glossary On
Versions: 1 2 3 4 5 6 7 8 9 10 11 12 13 14 15 16 17 18 19 20 21 22 23 24 25 26 27 28 29
000
FTUS41 KBUF 300339 AAA
TAFART
TAF AMD
KART 300339Z 3004/3024 22006KT P6SM SCT150
     FM301100 14004KT P6SM VCSH OVC110
     FM301400 16008KT 6SM -SHRA OVC080
     FM301700 12011KT 6SM -SHRA OVC045
     FM301900 11011KT 6SM -SHRA VCTS OVC035CB=

USA.gov is the U.S. government's official web portal to all federal, state and local government web resources and services.